Castle Valley, Utah
Current Conditions -  °F | °C
As of 11:53 PM on Sunday 23 Nov 2014 (Local Time) from KCNY Reporting Station
Clear Clear  
Wind Chill: 28°   Ceiling: Unl
Heat Index: 28°   Visibility: 10mi
Dew Point: 11°   Wind: 3mph
Humidity: 49%   Direction: 310°NW
Pressure: 30.15"   Gusts: NA
Location:  38.6903°N, 109.256°W
Report Text: KCNY 240653Z AUTO 31003KT 10SM CLR M02/M12 A3015 RMK AO2 SLP219 T10221117 400831033
Loading
Personal Weather Stations






























Interactive Weather Map New forecast layout! Learn more

10-Day Weather Forecast

Advertisements
Track Severe Weather on mobile